createdAt,value
2022-07-26T00:02:00.950Z,22.50
2022-07-26T00:04:47.577Z,22.50
2022-07-26T00:07:36.384Z,22.50
2022-07-26T00:10:23.552Z,22.50
2022-07-26T00:13:10.632Z,22.50
2022-07-26T00:15:57.813Z,22.50
2022-07-26T00:18:44.823Z,22.50
2022-07-26T00:21:31.736Z,22.50
2022-07-26T00:24:18.388Z,22.50
2022-07-26T00:27:05.256Z,22.50
2022-07-26T00:29:51.889Z,22.50
2022-07-26T00:32:38.984Z,22.60
2022-07-26T00:35:25.761Z,22.60
2022-07-26T00:38:12.625Z,22.60
2022-07-26T00:40:59.494Z,22.60
2022-07-26T00:43:56.217Z,22.60
2022-07-26T00:46:43.452Z,22.60
2022-07-26T00:49:30.111Z,22.60
2022-07-26T00:52:17.578Z,22.60
2022-07-26T00:55:04.857Z,22.60
2022-07-26T00:57:51.790Z,22.60
2022-07-26T01:00:38.457Z,22.60
2022-07-26T01:03:25.140Z,22.60
2022-07-26T01:06:17.019Z,22.60
2022-07-26T01:09:05.390Z,22.60
2022-07-26T01:11:52.042Z,22.50
2022-07-26T01:14:38.813Z,22.50
2022-07-26T01:17:25.471Z,22.50
2022-07-26T01:20:13.061Z,22.50
2022-07-26T01:22:59.674Z,22.40
2022-07-26T01:25:46.407Z,22.40
2022-07-26T01:28:38.749Z,22.30
2022-07-26T01:31:25.564Z,22.20
2022-07-26T01:34:12.463Z,22.20
2022-07-26T01:36:59.304Z,22.20
2022-07-26T01:39:46.377Z,22.20
2022-07-26T01:42:33.084Z,22.10
2022-07-26T01:45:19.776Z,22.00
2022-07-26T01:48:06.480Z,22.00
2022-07-26T01:50:53.135Z,22.00
2022-07-26T01:53:39.857Z,22.00
2022-07-26T01:56:26.476Z,21.90
2022-07-26T01:59:13.116Z,21.90
2022-07-26T02:01:59.852Z,21.90
2022-07-26T02:04:58.770Z,21.90
2022-07-26T02:07:45.447Z,22.00
2022-07-26T02:10:55.304Z,22.00
2022-07-26T02:13:42.384Z,22.10
2022-07-26T02:16:29.091Z,22.10
2022-07-26T02:19:15.752Z,22.10
2022-07-26T02:22:02.463Z,22.10
2022-07-26T02:24:49.173Z,22.10
2022-07-26T02:27:36.252Z,22.00
2022-07-26T02:30:22.996Z,22.00
2022-07-26T02:33:09.713Z,22.00
2022-07-26T02:35:56.434Z,21.90
2022-07-26T02:38:43.079Z,21.90
2022-07-26T02:41:29.871Z,21.80
2022-07-26T02:44:16.541Z,21.80
2022-07-26T02:47:03.163Z,21.70
2022-07-26T02:49:49.822Z,21.70
2022-07-26T02:52:36.447Z,21.50
2022-07-26T02:55:23.926Z,21.40
2022-07-26T02:58:10.562Z,21.30
2022-07-26T03:00:57.385Z,21.20
2022-07-26T03:03:50.156Z,21.20
2022-07-26T03:06:37.415Z,21.30
2022-07-26T03:09:24.084Z,21.30
2022-07-26T03:12:10.739Z,21.30
2022-07-26T03:14:57.375Z,21.30
2022-07-26T03:17:44.087Z,21.30
2022-07-26T03:20:30.737Z,21.30
2022-07-26T03:23:17.415Z,21.30
2022-07-26T03:26:04.302Z,21.20
2022-07-26T03:28:50.999Z,21.10
2022-07-26T03:31:37.714Z,21.10
2022-07-26T03:34:24.401Z,21.10
2022-07-26T03:37:11.058Z,21.10
2022-07-26T03:39:57.724Z,21.10
2022-07-26T03:42:47.328Z,21.00
2022-07-26T03:45:34.915Z,21.00
2022-07-26T03:48:21.723Z,20.90
2022-07-26T03:51:08.367Z,20.90
2022-07-26T03:53:55.004Z,20.90
2022-07-26T03:56:43.352Z,20.90
2022-07-26T03:59:30.015Z,20.90
2022-07-26T04:02:16.783Z,20.90
2022-07-26T04:05:03.586Z,21.00
2022-07-26T04:07:53.029Z,21.00
2022-07-26T04:10:40.206Z,20.90
2022-07-26T04:13:26.858Z,20.80
2022-07-26T04:16:14.340Z,20.80
2022-07-26T04:19:01.004Z,20.80
2022-07-26T04:21:47.617Z,20.80
2022-07-26T04:24:34.308Z,20.80
2022-07-26T04:27:20.907Z,20.70
2022-07-26T04:30:14.017Z,20.80
2022-07-26T04:33:01.429Z,20.80
2022-07-26T04:35:48.049Z,20.80
2022-07-26T04:38:34.659Z,20.70
2022-07-26T04:41:21.373Z,20.70
2022-07-26T04:44:08.197Z,20.70
2022-07-26T04:46:55.027Z,20.60
2022-07-26T04:49:41.707Z,20.50
2022-07-26T04:52:28.638Z,20.50
2022-07-26T04:55:15.721Z,20.40
2022-07-26T04:58:02.418Z,20.40
2022-07-26T05:03:55.697Z,20.50
2022-07-26T05:06:43.253Z,20.50
2022-07-26T05:09:29.992Z,20.60
2022-07-26T05:12:16.589Z,20.60
2022-07-26T05:15:04.569Z,20.70
2022-07-26T05:17:51.399Z,20.80
2022-07-26T05:20:38.426Z,20.80
2022-07-26T05:23:25.055Z,20.80
2022-07-26T05:26:12.316Z,20.80
2022-07-26T05:28:59.119Z,20.80
2022-07-26T05:31:45.806Z,20.80
2022-07-26T05:34:32.500Z,20.80
2022-07-26T05:37:19.253Z,20.80
2022-07-26T05:40:06.220Z,20.80
2022-07-26T05:42:52.924Z,20.90
2022-07-26T05:45:39.615Z,20.90
2022-07-26T05:48:26.625Z,21.00
2022-07-26T05:51:13.323Z,21.10
2022-07-26T05:53:59.964Z,21.20
2022-07-26T05:56:46.631Z,21.20
2022-07-26T05:59:33.421Z,21.20
2022-07-26T06:02:20.208Z,21.20
2022-07-26T06:05:07.457Z,21.20
2022-07-26T06:07:54.231Z,21.10
2022-07-26T06:10:40.910Z,21.20
2022-07-26T06:13:27.510Z,21.30
2022-07-26T06:16:14.312Z,21.40
2022-07-26T06:19:00.948Z,21.60
2022-07-26T06:21:47.608Z,21.80
2022-07-26T06:24:34.399Z,21.90
2022-07-26T06:27:21.335Z,22.00
2022-07-26T06:30:08.403Z,22.00
2022-07-26T06:32:55.052Z,22.10
2022-07-26T06:35:42.243Z,22.20
2022-07-26T06:38:29.173Z,22.20
2022-07-26T06:41:15.817Z,22.20
2022-07-26T06:44:02.487Z,22.10
2022-07-26T06:46:49.752Z,22.20
2022-07-26T06:49:36.499Z,22.30
2022-07-26T06:52:23.203Z,22.40
2022-07-26T06:55:12.575Z,22.40
2022-07-26T06:57:59.542Z,22.30
2022-07-26T07:00:46.273Z,22.30
2022-07-26T07:03:32.894Z,22.30
2022-07-26T07:06:19.567Z,22.40
2022-07-26T07:09:08.822Z,22.30
2022-07-26T07:12:02.498Z,22.40
2022-07-26T07:14:55.119Z,22.40
2022-07-26T07:17:41.815Z,22.30
2022-07-26T07:20:28.521Z,22.20
2022-07-26T07:23:15.164Z,22.10
2022-07-26T07:26:01.913Z,22.10
2022-07-26T07:28:48.750Z,22.00
2022-07-26T07:31:47.985Z,21.90
2022-07-26T07:34:36.044Z,22.00
2022-07-26T07:37:22.788Z,22.20
2022-07-26T07:40:10.190Z,22.50
2022-07-26T07:42:57.205Z,22.80
2022-07-26T07:45:43.891Z,23.00
2022-07-26T07:48:36.806Z,23.10
2022-07-26T07:51:23.617Z,23.20
2022-07-26T07:54:15.892Z,23.30
2022-07-26T07:57:02.990Z,23.30
2022-07-26T07:59:50.683Z,23.40
2022-07-26T08:02:37.427Z,23.50
2022-07-26T08:05:24.100Z,23.60
2022-07-26T08:08:11.587Z,23.50
2022-07-26T08:10:58.264Z,23.50
2022-07-26T08:13:47.943Z,23.40
2022-07-26T08:16:34.966Z,23.40
2022-07-26T08:19:22.000Z,23.20
2022-07-26T08:22:09.568Z,22.90
2022-07-26T08:24:56.247Z,22.90
2022-07-26T08:27:43.489Z,22.70
2022-07-26T08:30:32.746Z,22.70
2022-07-26T08:33:19.480Z,22.70
2022-07-26T08:36:06.290Z,23.00
2022-07-26T08:38:52.939Z,23.30
2022-07-26T08:41:42.749Z,23.40
2022-07-26T08:44:29.660Z,23.50
2022-07-26T08:47:17.347Z,23.50
2022-07-26T08:50:24.657Z,23.40
2022-07-26T08:53:13.116Z,23.40
2022-07-26T08:56:07.748Z,23.40
2022-07-26T08:58:54.557Z,23.50
2022-07-26T09:02:10.242Z,23.70
2022-07-26T09:05:03.217Z,23.80
2022-07-26T09:07:49.870Z,23.70
2022-07-26T09:10:39.215Z,23.60
2022-07-26T09:13:26.100Z,23.60
2022-07-26T09:16:12.937Z,23.70
2022-07-26T09:19:17.765Z,23.80
2022-07-26T09:22:10.462Z,23.90
2022-07-26T09:24:57.402Z,23.80
2022-07-26T09:27:44.119Z,23.60
2022-07-26T09:30:31.823Z,23.50
2022-07-26T09:33:18.478Z,23.40
2022-07-26T09:36:06.757Z,23.40
2022-07-26T09:38:54.807Z,23.40
2022-07-26T09:41:41.445Z,23.40
2022-07-26T09:44:28.089Z,23.40
2022-07-26T09:47:14.803Z,23.60
2022-07-26T09:50:11.607Z,23.60
2022-07-26T09:53:07.028Z,23.60
2022-07-26T09:55:55.360Z,23.50
2022-07-26T09:58:41.963Z,23.60
2022-07-26T10:01:29.051Z,23.70
2022-07-26T10:04:16.006Z,23.90
2022-07-26T10:07:03.430Z,24.00
2022-07-26T10:09:56.147Z,24.00
2022-07-26T10:12:46.824Z,24.00
2022-07-26T10:15:50.547Z,24.20
2022-07-26T10:18:38.126Z,24.20
2022-07-26T10:21:32.105Z,24.30
2022-07-26T10:24:25.918Z,24.50
2022-07-26T10:27:32.659Z,24.70
2022-07-26T10:30:19.382Z,24.70
2022-07-26T10:33:15.921Z,24.70
2022-07-26T10:36:20.867Z,24.60
2022-07-26T10:39:07.541Z,24.60
2022-07-26T10:41:58.363Z,24.80
2022-07-26T10:44:45.234Z,25.10
2022-07-26T10:47:35.273Z,25.20
2022-07-26T10:50:32.655Z,25.20
2022-07-26T10:53:26.358Z,25.30
2022-07-26T10:56:12.957Z,25.40
2022-07-26T10:59:01.143Z,25.50
2022-07-26T11:01:47.898Z,25.70
2022-07-26T11:04:34.617Z,25.70
2022-07-26T11:07:22.659Z,25.70
2022-07-26T11:10:09.457Z,25.60
2022-07-26T11:13:31.485Z,25.60
2022-07-26T11:16:18.210Z,25.60
2022-07-26T11:19:14.460Z,25.60
2022-07-26T11:22:01.377Z,25.60
2022-07-26T11:24:48.084Z,25.70
2022-07-26T11:27:34.803Z,25.70
2022-07-26T11:30:21.431Z,25.80
2022-07-26T11:33:08.608Z,26.00
2022-07-26T11:35:55.312Z,26.20
2022-07-26T11:38:50.636Z,26.60
2022-07-26T11:41:37.296Z,27.00
2022-07-26T11:44:24.036Z,26.90
2022-07-26T11:47:12.229Z,27.10
2022-07-26T11:50:17.060Z,27.40
2022-07-26T11:53:20.503Z,27.90
2022-07-26T11:56:14.839Z,28.60
2022-07-26T11:59:01.899Z,29.20
2022-07-26T12:01:48.899Z,30.10
2022-07-26T12:04:43.652Z,31.60
2022-07-26T12:07:31.092Z,34.50
2022-07-26T12:10:17.753Z,37.80
2022-07-26T12:13:08.128Z,41.50
2022-07-26T12:15:54.806Z,44.60
2022-07-26T12:18:50.668Z,47.10
2022-07-26T12:21:38.551Z,49.30
2022-07-26T12:24:34.675Z,51.10
2022-07-26T12:27:21.318Z,51.90
2022-07-26T12:30:08.256Z,52.50
2022-07-26T12:33:01.989Z,52.20
2022-07-26T12:35:48.637Z,51.80
2022-07-26T12:38:38.973Z,51.20
2022-07-26T12:41:31.675Z,50.20
2022-07-26T12:44:18.361Z,49.10
2022-07-26T12:47:05.756Z,48.00
2022-07-26T12:49:52.440Z,46.30
2022-07-26T12:52:39.248Z,44.20
2022-07-26T12:55:26.102Z,42.20
2022-07-26T12:58:12.754Z,40.10
2022-07-26T13:00:59.465Z,38.20
2022-07-26T13:03:46.159Z,36.60
2022-07-26T13:06:32.994Z,35.20
2022-07-26T13:09:19.762Z,34.20
2022-07-26T13:12:06.752Z,33.30
2022-07-26T13:14:53.511Z,32.70
2022-07-26T13:17:40.197Z,32.30
2022-07-26T13:20:26.883Z,32.00
2022-07-26T13:23:14.052Z,31.70
2022-07-26T13:26:09.368Z,31.40
2022-07-26T13:28:57.515Z,31.00
2022-07-26T13:31:44.257Z,30.90
2022-07-26T13:34:34.866Z,30.80
2022-07-26T13:37:21.935Z,30.50
2022-07-26T13:40:08.887Z,29.90
2022-07-26T13:42:55.556Z,29.60
2022-07-26T13:45:42.527Z,29.60
2022-07-26T13:48:29.280Z,30.00
2022-07-26T13:51:16.392Z,30.30
2022-07-26T13:54:04.761Z,30.30
2022-07-26T13:56:51.639Z,30.00
2022-07-26T13:59:38.380Z,29.90
2022-07-26T14:02:25.676Z,29.80
2022-07-26T14:05:12.447Z,29.70
2022-07-26T14:07:59.146Z,29.60
2022-07-26T14:10:46.199Z,29.50
2022-07-26T14:13:32.815Z,29.60
2022-07-26T14:16:19.587Z,29.60
2022-07-26T14:19:06.358Z,29.60
2022-07-26T14:21:59.855Z,29.70
2022-07-26T14:24:47.253Z,29.80
2022-07-26T14:27:33.951Z,29.90
2022-07-26T14:30:21.461Z,29.90
2022-07-26T14:33:08.180Z,29.90
2022-07-26T14:35:54.794Z,29.90
2022-07-26T14:38:42.515Z,29.80
2022-07-26T14:41:29.143Z,29.90
2022-07-26T14:44:15.875Z,29.80
2022-07-26T14:47:02.563Z,29.80
2022-07-26T14:49:53.751Z,29.60
2022-07-26T14:52:41.638Z,29.50
2022-07-26T14:55:28.467Z,29.30
2022-07-26T14:58:15.154Z,29.40
2022-07-26T15:01:01.880Z,29.50
2022-07-26T15:03:50.022Z,29.70
2022-07-26T15:06:36.676Z,29.90
2022-07-26T15:09:23.380Z,29.80
2022-07-26T15:12:11.448Z,29.90
2022-07-26T15:14:58.311Z,30.00
2022-07-26T15:17:44.978Z,30.10
2022-07-26T15:20:31.841Z,30.20
2022-07-26T15:23:18.699Z,30.10
2022-07-26T15:26:05.435Z,29.90
2022-07-26T15:28:52.087Z,29.40
2022-07-26T15:31:38.767Z,29.20
2022-07-26T15:34:25.462Z,29.10
2022-07-26T15:37:12.266Z,29.20
2022-07-26T15:39:59.303Z,29.20
2022-07-26T15:42:47.298Z,29.10
2022-07-26T15:45:35.006Z,29.10
2022-07-26T15:48:22.729Z,29.10
2022-07-26T15:51:09.649Z,29.20
2022-07-26T15:53:56.323Z,29.30
2022-07-26T15:56:43.614Z,29.50
2022-07-26T15:59:30.246Z,29.60
2022-07-26T16:02:16.976Z,29.60
2022-07-26T16:05:04.243Z,29.50
2022-07-26T16:07:50.980Z,29.20
2022-07-26T16:10:37.620Z,28.90
2022-07-26T16:13:24.441Z,28.90
2022-07-26T16:16:12.387Z,28.70
2022-07-26T16:18:59.118Z,28.60
2022-07-26T16:21:45.814Z,28.50
2022-07-26T16:24:32.622Z,28.30
2022-07-26T16:27:19.234Z,28.00
2022-07-26T16:30:06.938Z,28.00
2022-07-26T16:32:53.571Z,28.00
2022-07-26T16:35:40.267Z,27.90
2022-07-26T16:38:26.964Z,27.90
2022-07-26T16:41:13.668Z,27.90
2022-07-26T16:44:00.374Z,27.80
2022-07-26T16:46:47.127Z,27.70
2022-07-26T16:49:33.904Z,27.70
2022-07-26T16:52:20.963Z,27.60
2022-07-26T16:55:10.786Z,27.70
2022-07-26T16:57:57.488Z,27.70
2022-07-26T17:00:44.204Z,27.60
2022-07-26T17:03:30.919Z,27.40
2022-07-26T17:06:17.549Z,27.30
2022-07-26T17:09:04.297Z,27.20
2022-07-26T17:11:50.935Z,27.00
2022-07-26T17:14:37.576Z,26.90
2022-07-26T17:17:24.208Z,26.70
2022-07-26T17:20:11.003Z,26.60
2022-07-26T17:22:57.681Z,26.50
2022-07-26T17:25:44.628Z,26.50
2022-07-26T17:28:31.395Z,26.40
2022-07-26T17:31:18.085Z,26.40
2022-07-26T17:34:04.715Z,26.40
2022-07-26T17:36:58.580Z,26.40
2022-07-26T17:39:51.933Z,26.30
2022-07-26T17:42:39.503Z,26.20
2022-07-26T17:45:26.254Z,26.10
2022-07-26T17:48:12.882Z,26.10
2022-07-26T17:50:59.637Z,26.00
2022-07-26T17:53:49.776Z,25.90
2022-07-26T17:56:39.688Z,25.80
2022-07-26T17:59:26.342Z,25.60
2022-07-26T18:02:13.286Z,25.50
2022-07-26T18:04:59.993Z,25.30
2022-07-26T18:07:46.711Z,25.20
2022-07-26T18:10:33.490Z,25.20
2022-07-26T18:13:20.190Z,25.20
2022-07-26T18:16:06.923Z,25.20
2022-07-26T18:18:53.585Z,25.20
2022-07-26T18:21:40.433Z,25.10
2022-07-26T18:24:27.052Z,25.00
2022-07-26T18:27:13.701Z,24.90
2022-07-26T18:30:00.558Z,24.80
2022-07-26T18:32:47.368Z,24.70
2022-07-26T18:35:34.095Z,24.60
2022-07-26T18:38:20.758Z,24.50
2022-07-26T18:41:07.423Z,24.40
2022-07-26T18:43:54.286Z,24.30
2022-07-26T18:46:41.031Z,24.20
2022-07-26T18:49:31.222Z,24.00
2022-07-26T18:52:28.445Z,23.90
2022-07-26T18:55:19.093Z,23.80
2022-07-26T18:58:07.041Z,23.70
2022-07-26T19:00:55.193Z,23.70
2022-07-26T19:03:41.957Z,23.60
2022-07-26T19:06:28.748Z,23.60
2022-07-26T19:09:15.415Z,23.50
2022-07-26T19:12:02.191Z,23.50
2022-07-26T19:14:48.843Z,23.40
2022-07-26T19:17:35.794Z,23.40
2022-07-26T19:20:22.484Z,23.40
2022-07-26T19:23:12.607Z,23.40
2022-07-26T19:25:59.367Z,23.30
2022-07-26T19:28:46.035Z,23.30
2022-07-26T19:31:33.096Z,23.30
2022-07-26T19:34:19.910Z,23.30
2022-07-26T19:37:06.531Z,23.20
2022-07-26T19:39:55.689Z,23.10
2022-07-26T19:42:42.400Z,23.10
2022-07-26T19:45:29.041Z,23.10
2022-07-26T19:48:15.757Z,23.00
2022-07-26T19:51:02.412Z,23.00
2022-07-26T19:53:49.207Z,23.00
2022-07-26T19:56:35.891Z,22.90
2022-07-26T19:59:23.938Z,22.90
2022-07-26T20:02:11.196Z,22.80
2022-07-26T20:04:57.907Z,22.80
2022-07-26T20:07:44.567Z,22.70
2022-07-26T20:10:32.309Z,22.70
2022-07-26T20:13:19.176Z,22.60
2022-07-26T20:16:06.020Z,22.60
2022-07-26T20:18:52.769Z,22.50
2022-07-26T20:21:39.429Z,22.50
2022-07-26T20:24:26.277Z,22.40
2022-07-26T20:27:12.932Z,22.40
2022-07-26T20:30:01.252Z,22.40
2022-07-26T20:32:48.112Z,22.30
2022-07-26T20:35:34.845Z,22.30
2022-07-26T20:38:21.459Z,22.30
2022-07-26T20:41:08.352Z,22.30
2022-07-26T20:43:56.815Z,22.20
2022-07-26T20:46:43.539Z,22.20
2022-07-26T20:49:30.256Z,22.20
2022-07-26T20:52:16.913Z,22.10
2022-07-26T20:55:04.011Z,22.10
2022-07-26T20:57:50.669Z,22.10
2022-07-26T21:00:37.302Z,22.00
2022-07-26T21:03:23.969Z,22.00
2022-07-26T21:06:10.633Z,21.90
2022-07-26T21:08:57.847Z,21.90
2022-07-26T21:11:44.604Z,21.90
2022-07-26T21:14:31.319Z,21.90
2022-07-26T21:17:18.193Z,21.90
2022-07-26T21:20:05.283Z,21.80
2022-07-26T21:22:51.917Z,21.80
2022-07-26T21:25:38.671Z,21.80
2022-07-26T21:28:25.312Z,21.80
2022-07-26T21:31:11.938Z,21.80
2022-07-26T21:33:58.941Z,21.80
2022-07-26T21:36:46.272Z,21.80
2022-07-26T21:39:33.190Z,21.70
2022-07-26T21:42:19.860Z,21.70
2022-07-26T21:45:06.855Z,21.60
2022-07-26T21:47:56.570Z,21.60
2022-07-26T21:50:43.286Z,21.60
2022-07-26T21:53:29.992Z,21.60
2022-07-26T21:56:16.590Z,21.60
2022-07-26T21:59:03.330Z,21.50
2022-07-26T22:01:50.132Z,21.50
2022-07-26T22:04:36.831Z,21.40
2022-07-26T22:07:23.481Z,21.30
2022-07-26T22:10:10.139Z,21.30
2022-07-26T22:12:56.773Z,21.30
2022-07-26T22:15:43.592Z,21.20
2022-07-26T22:18:30.421Z,21.30
2022-07-26T22:21:17.438Z,21.30
2022-07-26T22:24:04.223Z,21.20
2022-07-26T22:26:50.883Z,21.10
2022-07-26T22:29:40.215Z,21.10
2022-07-26T22:32:27.423Z,21.10
2022-07-26T22:35:14.095Z,21.10
2022-07-26T22:38:01.923Z,21.00
2022-07-26T22:40:48.591Z,21.10
2022-07-26T22:43:35.325Z,21.00
2022-07-26T22:46:27.779Z,21.00
2022-07-26T22:49:16.397Z,21.00
2022-07-26T22:52:03.147Z,21.10
2022-07-26T22:54:49.819Z,21.10
2022-07-26T22:57:36.629Z,21.00
2022-07-26T23:00:23.336Z,21.00
2022-07-26T23:03:19.654Z,20.90
2022-07-26T23:06:10.352Z,20.90
2022-07-26T23:09:13.435Z,20.90
2022-07-26T23:12:00.293Z,20.90
2022-07-26T23:14:46.903Z,20.90
2022-07-26T23:17:33.603Z,20.90
2022-07-26T23:20:22.763Z,20.90
2022-07-26T23:23:09.563Z,20.90
2022-07-26T23:25:56.222Z,20.90
2022-07-26T23:28:42.880Z,20.90
2022-07-26T23:31:29.569Z,21.00
2022-07-26T23:34:16.238Z,20.90
2022-07-26T23:37:03.060Z,20.90
2022-07-26T23:39:49.706Z,20.80
2022-07-26T23:42:36.342Z,20.80
2022-07-26T23:45:23.190Z,20.80
2022-07-26T23:48:09.848Z,20.70
2022-07-26T23:50:56.504Z,20.70
2022-07-26T23:53:43.235Z,20.70
2022-07-26T23:56:29.866Z,20.70
2022-07-26T23:59:16.616Z,20.60
